createdAt,value
2023-03-15T00:02:19.822Z,0.88
2023-03-15T00:05:22.964Z,0.84
2023-03-15T00:08:24.769Z,0.81
2023-03-15T00:11:26.657Z,0.84
2023-03-15T00:14:28.521Z,0.83
2023-03-15T00:17:30.260Z,0.84
2023-03-15T00:20:33.338Z,0.82
2023-03-15T00:23:35.363Z,0.81
2023-03-15T00:26:37.272Z,0.82
2023-03-15T00:29:39.004Z,0.82
2023-03-15T00:32:40.989Z,0.83
2023-03-15T00:35:45.508Z,0.81
2023-03-15T00:38:47.315Z,0.76
2023-03-15T00:41:49.123Z,0.74
2023-03-15T00:44:50.782Z,0.68
2023-03-15T00:47:53.713Z,0.71
2023-03-15T00:51:03.767Z,0.72
2023-03-15T00:54:05.940Z,0.77
2023-03-15T00:57:07.777Z,0.79
2023-03-15T01:00:11.290Z,0.81
2023-03-15T01:03:13.318Z,0.80
2023-03-15T01:06:17.337Z,0.78
2023-03-15T01:09:19.399Z,0.78
2023-03-15T01:12:21.191Z,0.74
2023-03-15T01:15:22.913Z,0.76
2023-03-15T01:18:24.903Z,0.81
2023-03-15T01:21:28.137Z,0.81
2023-03-15T01:24:29.966Z,0.82
2023-03-15T01:27:32.115Z,0.88
2023-03-15T01:30:33.773Z,0.94
2023-03-15T01:33:35.536Z,0.95
2023-03-15T01:36:38.606Z,1.00
2023-03-15T01:39:40.646Z,0.98
2023-03-15T01:42:52.680Z,0.98
2023-03-15T01:46:01.904Z,1.00
2023-03-15T01:49:07.852Z,1.00
2023-03-15T01:52:17.458Z,1.00
2023-03-15T01:55:26.849Z,1.03
2023-03-15T01:58:42.213Z,1.02
2023-03-15T02:01:45.967Z,0.98
2023-03-15T02:04:50.169Z,0.92
2023-03-15T02:07:55.058Z,0.84
2023-03-15T02:11:01.327Z,0.78
2023-03-15T02:14:05.590Z,0.76
2023-03-15T02:17:08.790Z,0.72
2023-03-15T02:20:17.416Z,0.61
2023-03-15T02:23:21.124Z,0.60
2023-03-15T02:26:25.859Z,0.59
2023-03-15T02:29:30.059Z,0.57
2023-03-15T02:32:31.962Z,0.52
2023-03-15T02:35:33.603Z,0.44
2023-03-15T02:38:35.252Z,0.37
2023-03-15T02:41:39.014Z,0.32
2023-03-15T02:44:43.636Z,0.27
2023-03-15T02:47:49.015Z,0.29
2023-03-15T02:50:50.765Z,0.30
2023-03-15T02:53:52.524Z,0.26
2023-03-15T02:56:54.426Z,0.27
2023-03-15T03:00:11.410Z,0.27
2023-03-15T03:03:13.394Z,0.27
2023-03-15T03:06:18.171Z,0.28
2023-03-15T03:09:21.289Z,0.27
2023-03-15T03:12:23.197Z,0.28
2023-03-15T03:15:26.499Z,0.28
2023-03-15T03:18:28.884Z,0.27
2023-03-15T03:21:31.177Z,0.29
2023-03-15T03:24:33.846Z,0.28
2023-03-15T03:27:36.819Z,0.31
2023-03-15T03:30:41.367Z,0.29
2023-03-15T03:33:43.109Z,0.31
2023-03-15T03:36:45.215Z,0.31
2023-03-15T03:39:50.062Z,0.35
2023-03-15T03:42:51.696Z,0.37
2023-03-15T03:45:56.259Z,0.37
2023-03-15T03:48:58.385Z,0.37
2023-03-15T03:52:01.293Z,0.35
2023-03-15T03:55:04.015Z,0.34
2023-03-15T03:58:05.718Z,0.36
2023-03-15T04:01:33.990Z,0.32
2023-03-15T04:04:36.046Z,0.28
2023-03-15T04:07:39.622Z,0.28
2023-03-15T04:10:42.687Z,0.25
2023-03-15T04:13:47.972Z,0.21
2023-03-15T04:16:51.004Z,0.18
2023-03-15T04:19:54.016Z,0.21
2023-03-15T04:23:01.164Z,0.19
2023-03-15T04:26:15.523Z,0.23
2023-03-15T04:29:41.981Z,0.20
2023-03-15T04:33:12.458Z,0.18
2023-03-15T04:36:34.766Z,0.14
2023-03-15T04:40:07.976Z,0.16
2023-03-15T04:43:31.225Z,0.13
2023-03-15T04:46:44.507Z,0.10
2023-03-15T04:50:07.240Z,0.09
2023-03-15T04:53:20.162Z,0.10
2023-03-15T04:56:21.737Z,0.11
2023-03-15T04:59:42.060Z,0.07
2023-03-15T05:03:11.345Z,0.05
2023-03-15T05:06:31.262Z,0.05
2023-03-15T05:09:39.959Z,0.04
2023-03-15T05:12:57.692Z,0.07
2023-03-15T05:16:15.073Z,0.12
2023-03-15T05:19:35.573Z,0.12
2023-03-15T05:22:55.513Z,0.14
2023-03-15T05:26:16.821Z,0.13
2023-03-15T05:29:38.698Z,0.14
2023-03-15T05:32:54.205Z,0.15
2023-03-15T05:36:18.511Z,0.16
2023-03-15T05:39:44.689Z,0.19
2023-03-15T05:43:12.689Z,0.20
2023-03-15T05:46:29.773Z,0.19
2023-03-15T05:49:57.586Z,0.20
2023-03-15T05:53:10.622Z,0.24
2023-03-15T05:56:31.247Z,0.21
2023-03-15T06:00:02.393Z,0.24
2023-03-15T06:03:16.356Z,0.24
2023-03-15T06:06:28.009Z,0.25
2023-03-15T06:09:30.090Z,0.27
2023-03-15T06:12:33.205Z,0.32
2023-03-15T06:15:35.441Z,0.32
2023-03-15T06:18:37.491Z,0.31
2023-03-15T06:21:39.220Z,0.33
2023-03-15T06:24:46.803Z,0.35
2023-03-15T06:27:50.177Z,0.35
2023-03-15T06:30:52.527Z,0.35
2023-03-15T06:33:58.441Z,0.36
2023-03-15T06:37:01.244Z,0.42
2023-03-15T06:40:07.371Z,0.44
2023-03-15T06:43:14.181Z,0.48
2023-03-15T06:46:16.371Z,0.52
2023-03-15T06:49:18.217Z,0.55
2023-03-15T06:52:19.849Z,0.56
2023-03-15T06:55:21.471Z,0.57
2023-03-15T06:58:25.679Z,0.57
2023-03-15T07:01:27.324Z,0.57
2023-03-15T07:04:29.280Z,0.57
2023-03-15T07:07:32.036Z,0.52
2023-03-15T07:10:33.792Z,0.54
2023-03-15T07:13:36.938Z,0.56
2023-03-15T07:16:38.786Z,0.59
2023-03-15T07:19:50.129Z,0.62
2023-03-15T07:22:52.075Z,0.70
2023-03-15T07:25:55.631Z,0.74
2023-03-15T07:28:58.917Z,0.76
2023-03-15T07:32:01.382Z,0.81
2023-03-15T07:35:03.208Z,0.83
2023-03-15T07:38:04.803Z,0.74
2023-03-15T07:41:07.097Z,0.76
2023-03-15T07:44:14.200Z,0.83
2023-03-15T07:47:16.074Z,0.86
2023-03-15T07:50:17.842Z,0.86
2023-03-15T07:53:19.462Z,0.90
2023-03-15T07:56:22.399Z,0.97
2023-03-15T07:59:25.885Z,1.15
2023-03-15T08:02:30.153Z,1.25
2023-03-15T08:05:32.186Z,1.19
2023-03-15T08:08:33.871Z,1.36
2023-03-15T08:14:39.376Z,1.60
2023-03-15T08:17:41.371Z,1.75
2023-03-15T08:20:43.309Z,1.77
2023-03-15T08:23:44.972Z,1.80
2023-03-15T08:26:46.651Z,1.69
2023-03-15T08:29:50.268Z,1.67
2023-03-15T08:32:52.685Z,1.60
2023-03-15T08:35:55.047Z,1.81
2023-03-15T08:38:57.244Z,2.04
2023-03-15T08:41:59.031Z,1.89
2023-03-15T08:45:02.266Z,2.01
2023-03-15T08:48:04.225Z,2.10
2023-03-15T08:51:07.015Z,2.20
2023-03-15T08:54:09.035Z,2.11
2023-03-15T08:57:12.697Z,2.28
2023-03-15T09:00:23.042Z,2.65
2023-03-15T09:03:24.746Z,2.74
2023-03-15T09:06:26.753Z,2.83
2023-03-15T09:09:28.415Z,2.89
2023-03-15T09:12:30.620Z,2.67
2023-03-15T09:15:33.869Z,2.69
2023-03-15T09:18:35.421Z,2.59
2023-03-15T09:21:37.103Z,2.65
2023-03-15T09:24:38.696Z,2.96
2023-03-15T09:27:40.625Z,3.07
2023-03-15T09:30:44.129Z,2.73
2023-03-15T09:33:49.706Z,2.64
2023-03-15T09:36:54.584Z,2.81
2023-03-15T09:39:57.392Z,3.20
2023-03-15T09:43:04.045Z,3.19
2023-03-15T09:46:12.797Z,2.95
2023-03-15T09:49:17.353Z,2.84
2023-03-15T09:52:26.526Z,2.89
2023-03-15T09:55:28.906Z,3.20
2023-03-15T09:58:35.806Z,3.58
2023-03-15T10:01:40.134Z,3.57
2023-03-15T10:04:43.806Z,3.28
2023-03-15T10:07:48.604Z,3.43
2023-03-15T10:10:53.100Z,3.49
2023-03-15T10:14:00.623Z,3.78
2023-03-15T10:17:07.445Z,3.70
2023-03-15T10:20:12.923Z,3.60
2023-03-15T10:23:18.140Z,3.53
2023-03-15T10:26:34.152Z,3.57
2023-03-15T10:29:36.739Z,3.43
2023-03-15T10:32:42.549Z,3.26
2023-03-15T10:35:44.374Z,3.27
2023-03-15T10:38:45.984Z,3.28
2023-03-15T10:41:48.675Z,3.16
2023-03-15T10:44:50.443Z,3.25
2023-03-15T10:48:00.331Z,3.40
2023-03-15T10:51:05.017Z,3.31
2023-03-15T10:54:08.125Z,3.09
2023-03-15T10:57:14.233Z,2.99
2023-03-15T11:00:22.743Z,2.94
2023-03-15T11:03:26.126Z,3.36
2023-03-15T11:06:28.969Z,3.45
2023-03-15T11:09:38.586Z,3.43
2023-03-15T11:12:40.235Z,3.27
2023-03-15T11:15:47.333Z,2.95
2023-03-15T11:18:53.580Z,2.57
2023-03-15T11:21:56.141Z,2.52
2023-03-15T11:24:59.168Z,2.73
2023-03-15T11:28:01.446Z,3.10
2023-03-15T11:31:04.746Z,3.62
2023-03-15T11:34:09.168Z,4.14
2023-03-15T11:37:16.530Z,3.84
2023-03-15T11:40:22.215Z,3.70
2023-03-15T11:43:25.741Z,3.73
2023-03-15T11:46:29.901Z,3.93
2023-03-15T11:49:35.206Z,4.10
2023-03-15T11:52:37.071Z,4.09
2023-03-15T11:55:38.671Z,4.21
2023-03-15T11:58:42.600Z,4.23
2023-03-15T12:01:46.562Z,4.13
2023-03-15T12:04:50.046Z,4.15
2023-03-15T12:07:59.233Z,4.50
2023-03-15T12:11:01.507Z,4.85
2023-03-15T12:14:03.948Z,4.80
2023-03-15T12:17:24.507Z,5.08
2023-03-15T12:20:34.432Z,5.14
2023-03-15T12:23:39.266Z,5.51
2023-03-15T12:26:44.316Z,5.15
2023-03-15T12:29:47.301Z,5.14
2023-03-15T12:32:51.564Z,5.34
2023-03-15T12:35:58.769Z,5.29
2023-03-15T12:39:02.281Z,5.33
2023-03-15T12:42:04.165Z,5.51
2023-03-15T12:45:29.771Z,5.80
2023-03-15T12:48:32.022Z,5.67
2023-03-15T12:51:43.412Z,5.63
2023-03-15T12:54:46.971Z,5.41
2023-03-15T12:57:50.430Z,5.21
2023-03-15T13:00:52.814Z,4.95
2023-03-15T13:03:56.025Z,4.83
2023-03-15T13:07:04.946Z,4.66
2023-03-15T13:10:22.388Z,4.55
2023-03-15T13:13:45.101Z,4.41
2023-03-15T13:16:51.196Z,4.14
2023-03-15T13:20:00.362Z,4.07
2023-03-15T13:23:11.709Z,3.69
2023-03-15T13:26:19.176Z,3.31
2023-03-15T13:29:26.413Z,3.36
2023-03-15T13:32:28.073Z,3.59
2023-03-15T13:35:29.729Z,3.45
2023-03-15T13:38:34.121Z,3.31
2023-03-15T13:41:38.884Z,3.33
2023-03-15T13:44:41.648Z,3.53
2023-03-15T13:47:44.782Z,3.79
2023-03-15T13:50:48.648Z,3.81
2023-03-15T13:53:52.609Z,4.12
2023-03-15T13:56:59.591Z,4.28
2023-03-15T14:00:10.466Z,4.29
2023-03-15T14:03:14.838Z,4.17
2023-03-15T14:06:21.878Z,4.04
2023-03-15T14:09:28.680Z,4.27
2023-03-15T14:12:30.456Z,4.26
2023-03-15T14:15:36.323Z,4.47
2023-03-15T14:18:38.305Z,4.76
2023-03-15T14:21:43.459Z,4.70
2023-03-15T14:24:48.175Z,4.73
2023-03-15T14:27:49.794Z,5.04
2023-03-15T14:30:52.687Z,4.83
2023-03-15T14:33:56.072Z,4.87
2023-03-15T14:36:59.933Z,4.98
2023-03-15T14:40:13.915Z,4.77
2023-03-15T14:43:16.761Z,4.75
2023-03-15T14:46:19.949Z,4.68
2023-03-15T14:49:23.866Z,4.82
2023-03-15T14:52:27.011Z,4.93
2023-03-15T14:55:31.147Z,4.91
2023-03-15T14:58:33.043Z,4.83
2023-03-15T15:01:34.824Z,4.84
2023-03-15T15:04:37.621Z,4.54
2023-03-15T15:07:39.318Z,4.54
2023-03-15T15:10:44.166Z,4.45
2023-03-15T15:13:45.721Z,4.67
2023-03-15T15:16:47.386Z,4.85
2023-03-15T15:19:48.933Z,4.81
2023-03-15T15:22:50.684Z,4.89
2023-03-15T15:25:55.808Z,5.05
2023-03-15T15:28:58.036Z,4.89
2023-03-15T15:31:59.703Z,4.95
2023-03-15T15:35:02.496Z,5.00
2023-03-15T15:38:08.458Z,5.10
2023-03-15T15:41:13.835Z,5.16
2023-03-15T15:44:16.439Z,5.39
2023-03-15T15:47:18.211Z,5.32
2023-03-15T15:50:20.694Z,5.31
2023-03-15T15:53:23.071Z,5.20
2023-03-15T15:56:29.839Z,5.21
2023-03-15T15:59:31.679Z,5.28
2023-03-15T16:02:35.656Z,5.14
2023-03-15T16:05:37.473Z,5.22
2023-03-15T16:08:39.675Z,5.34
2023-03-15T16:11:42.932Z,5.41
2023-03-15T16:14:44.433Z,5.46
2023-03-15T16:17:46.924Z,5.56
2023-03-15T16:20:48.644Z,5.48
2023-03-15T16:23:54.843Z,5.34
2023-03-15T16:27:01.410Z,5.17
2023-03-15T16:30:04.748Z,5.15
2023-03-15T16:33:10.692Z,5.41
2023-03-15T16:36:16.543Z,5.15
2023-03-15T16:39:18.530Z,4.99
2023-03-15T16:42:23.718Z,4.76
2023-03-15T16:45:25.687Z,4.59
2023-03-15T16:48:27.242Z,4.50
2023-03-15T16:51:28.953Z,4.35
2023-03-15T16:54:40.949Z,4.24
2023-03-15T16:57:54.591Z,4.14
2023-03-15T17:00:56.502Z,4.03
2023-03-15T17:03:58.465Z,3.94
2023-03-15T17:07:00.270Z,3.86
2023-03-15T17:10:06.469Z,3.78
2023-03-15T17:13:11.692Z,3.69
2023-03-15T17:16:15.341Z,3.62
2023-03-15T17:19:16.907Z,3.57
2023-03-15T17:22:19.166Z,3.53
2023-03-15T17:25:20.988Z,3.47
2023-03-15T17:28:24.420Z,3.41
2023-03-15T17:31:28.300Z,3.37
2023-03-15T17:34:30.142Z,3.36
2023-03-15T17:37:34.415Z,3.28
2023-03-15T17:40:36.365Z,3.23
2023-03-15T17:43:43.979Z,3.05
2023-03-15T17:46:45.647Z,3.18
2023-03-15T17:49:48.242Z,3.17
2023-03-15T17:52:53.321Z,3.11
2023-03-15T17:55:55.044Z,3.00
2023-03-15T17:58:57.986Z,2.88
2023-03-15T18:01:59.748Z,2.85
2023-03-15T18:05:01.412Z,2.82
2023-03-15T18:08:04.235Z,2.78
2023-03-15T18:11:11.902Z,2.73
2023-03-15T18:14:16.122Z,2.72
2023-03-15T18:17:17.890Z,2.67
2023-03-15T18:20:22.123Z,2.66
2023-03-15T18:23:23.709Z,2.71
2023-03-15T18:26:25.278Z,2.71
2023-03-15T18:29:28.291Z,2.61
2023-03-15T18:32:30.104Z,2.51
2023-03-15T18:35:32.575Z,2.45
2023-03-15T18:38:34.753Z,2.46
2023-03-15T18:41:36.466Z,2.33
2023-03-15T18:44:39.472Z,2.18
2023-03-15T18:47:41.193Z,2.09
2023-03-15T18:50:43.855Z,1.97
2023-03-15T18:53:46.085Z,1.90
2023-03-15T18:56:48.141Z,1.80
2023-03-15T18:59:51.600Z,1.73
2023-03-15T19:02:53.637Z,1.69
2023-03-15T19:05:55.369Z,1.68
2023-03-15T19:08:57.427Z,1.59
2023-03-15T19:11:59.084Z,1.54
2023-03-15T19:15:02.003Z,1.50
2023-03-15T19:18:04.051Z,1.41
2023-03-15T19:21:06.011Z,1.35
2023-03-15T19:24:07.989Z,1.39
2023-03-15T19:27:09.689Z,1.33
2023-03-15T19:30:17.004Z,1.30
2023-03-15T19:33:18.750Z,1.24
2023-03-15T19:36:22.237Z,1.25
2023-03-15T19:39:23.981Z,1.23
2023-03-15T19:42:25.910Z,1.24
2023-03-15T19:45:29.001Z,1.08
2023-03-15T19:48:30.968Z,0.99
2023-03-15T19:51:32.572Z,0.90
2023-03-15T19:54:34.332Z,0.90
2023-03-15T19:57:36.522Z,0.95
2023-03-15T20:00:39.391Z,1.07
2023-03-15T20:03:40.979Z,1.06
2023-03-15T20:06:42.572Z,1.03
2023-03-15T20:09:44.171Z,0.96
2023-03-15T20:12:47.447Z,1.00
2023-03-15T20:15:50.513Z,0.92
2023-03-15T20:18:52.222Z,0.95
2023-03-15T20:21:54.164Z,0.86
2023-03-15T20:24:55.862Z,0.86
2023-03-15T20:27:57.417Z,0.79
2023-03-15T20:31:00.476Z,0.78
2023-03-15T20:34:02.269Z,0.82
2023-03-15T20:37:04.026Z,0.79
2023-03-15T20:40:09.077Z,0.71
2023-03-15T20:43:12.384Z,0.70
2023-03-15T20:49:54.795Z,0.63
2023-03-15T20:52:56.500Z,0.57
2023-03-15T20:55:58.325Z,0.55
2023-03-15T20:59:00.006Z,0.52
2023-03-15T21:02:02.789Z,0.49
2023-03-15T21:05:06.369Z,0.49
2023-03-15T21:08:08.450Z,0.36
2023-03-15T21:11:10.033Z,0.27
2023-03-15T21:14:11.758Z,0.23
2023-03-15T21:17:14.382Z,0.19
2023-03-15T21:20:18.078Z,0.20
2023-03-15T21:23:19.895Z,0.20
2023-03-15T21:26:22.410Z,0.25
2023-03-15T21:29:24.156Z,0.28
2023-03-15T21:32:26.192Z,0.32
2023-03-15T21:35:29.414Z,0.32
2023-03-15T21:38:31.797Z,0.25
2023-03-15T21:41:34.223Z,0.19
2023-03-15T21:44:37.402Z,0.18
2023-03-15T21:47:39.017Z,0.10
2023-03-15T21:50:43.016Z,0.11
2023-03-15T21:53:46.313Z,0.24
2023-03-15T21:56:48.172Z,0.35
2023-03-15T21:59:49.900Z,0.32
2023-03-15T22:02:55.596Z,0.33
2023-03-15T22:05:58.812Z,0.22
2023-03-15T22:09:00.724Z,0.25
2023-03-15T22:12:02.383Z,0.29
2023-03-15T22:15:06.152Z,0.28
2023-03-15T22:18:08.016Z,0.25
2023-03-15T22:21:11.309Z,0.14
2023-03-15T22:24:13.503Z,0.10
2023-03-15T22:27:15.275Z,0.03
2023-03-15T22:30:18.799Z,0.11
2023-03-15T22:33:22.525Z,0.19
2023-03-15T22:36:25.573Z,0.07
2023-03-15T22:39:27.208Z,0.08
2023-03-15T22:42:29.047Z,0.08
2023-03-15T22:45:30.907Z,0.05
2023-03-15T22:48:33.178Z,-0.04
2023-03-15T22:51:36.495Z,0.02
2023-03-15T22:54:38.370Z,0.02
2023-03-15T22:57:40.184Z,-0.04
2023-03-15T23:00:41.810Z,-0.10
2023-03-15T23:03:43.476Z,-0.12
2023-03-15T23:06:48.306Z,-0.03
2023-03-15T23:09:50.136Z,-0.06
2023-03-15T23:12:55.642Z,-0.08
2023-03-15T23:15:59.865Z,-0.11
2023-03-15T23:19:03.058Z,-0.03
2023-03-15T23:22:07.152Z,0.01
2023-03-15T23:25:09.951Z,0.14
2023-03-15T23:28:11.803Z,0.08
2023-03-15T23:31:13.891Z,0.02
2023-03-15T23:34:18.566Z,-0.02
2023-03-15T23:37:21.600Z,-0.03
2023-03-15T23:40:24.306Z,-0.03
2023-03-15T23:43:26.660Z,0.10
2023-03-15T23:46:28.429Z,0.17
2023-03-15T23:49:30.030Z,0.08
2023-03-15T23:52:33.178Z,-0.02
2023-03-15T23:55:35.118Z,-0.06
2023-03-15T23:58:37.431Z,-0.08
